createdAt,value
2023-01-03T00:02:48.433Z,1.90
2023-01-03T00:05:49.829Z,2.17
2023-01-03T00:08:53.523Z,1.67
2023-01-03T00:11:54.979Z,2.42
2023-01-03T00:14:56.344Z,1.55
2023-01-03T00:17:57.700Z,1.83
2023-01-03T00:21:03.951Z,1.65
2023-01-03T00:24:06.235Z,1.60
2023-01-03T00:27:07.595Z,1.45
2023-01-03T00:30:09.384Z,1.65
2023-01-03T00:33:10.752Z,2.80
2023-01-03T00:36:12.385Z,1.80
2023-01-03T00:39:13.752Z,1.60
2023-01-03T00:42:15.120Z,2.78
2023-01-03T00:45:19.875Z,1.63
2023-01-03T00:48:22.111Z,2.00
2023-01-03T00:51:29.124Z,1.90
2023-01-03T00:54:30.502Z,1.50
2023-01-03T00:57:31.859Z,2.75
2023-01-03T01:00:33.942Z,1.52
2023-01-03T01:03:37.434Z,1.40
2023-01-03T01:06:42.635Z,1.40
2023-01-03T01:09:43.965Z,1.50
2023-01-03T01:12:46.733Z,1.60
2023-01-03T01:15:48.098Z,1.70
2023-01-03T01:18:50.770Z,1.40
2023-01-03T01:21:52.473Z,1.37
2023-01-03T01:24:53.827Z,1.92
2023-01-03T01:27:55.183Z,1.73
2023-01-03T01:31:03.852Z,2.03
2023-01-03T01:34:05.247Z,1.98
2023-01-03T01:37:06.623Z,1.75
2023-01-03T01:40:08.638Z,2.10
2023-01-03T01:43:21.290Z,1.77
2023-01-03T01:46:32.628Z,1.70
2023-01-03T01:49:34.050Z,1.83
2023-01-03T01:52:39.235Z,2.17
2023-01-03T01:55:47.990Z,1.90
2023-01-03T01:58:52.583Z,1.95
2023-01-03T02:01:54.628Z,2.42
2023-01-03T02:04:57.284Z,2.00
2023-01-03T02:07:59.234Z,2.70
2023-01-03T02:11:22.267Z,2.88
2023-01-03T02:14:41.759Z,2.17
2023-01-03T02:18:04.681Z,2.75
2023-01-03T02:21:37.384Z,2.00
2023-01-03T02:24:44.703Z,2.00
2023-01-03T02:28:09.534Z,2.47
2023-01-03T02:31:10.919Z,2.05
2023-01-03T02:34:27.060Z,1.88
2023-01-03T02:37:47.616Z,1.85
2023-01-03T02:41:23.112Z,1.83
2023-01-03T02:44:35.964Z,1.75
2023-01-03T02:47:55.804Z,2.20
2023-01-03T02:51:00.997Z,2.13
2023-01-03T02:54:04.945Z,1.95
2023-01-03T02:57:11.489Z,2.50
2023-01-03T03:00:17.731Z,2.92
2023-01-03T03:03:26.358Z,2.25
2023-01-03T03:06:47.552Z,3.22
2023-01-03T03:09:49.331Z,2.83
2023-01-03T03:12:55.394Z,2.85
2023-01-03T03:16:30.049Z,2.17
2023-01-03T03:19:36.194Z,3.20
2023-01-03T03:22:53.810Z,2.33
2023-01-03T03:26:10.977Z,2.30
2023-01-03T03:29:17.085Z,2.40
2023-01-03T03:32:18.547Z,2.70
2023-01-03T03:35:23.124Z,2.90
2023-01-03T03:38:34.344Z,2.50
2023-01-03T03:41:50.304Z,2.30
2023-01-03T03:45:00.904Z,2.72
2023-01-03T03:48:32.392Z,3.40
2023-01-03T03:51:37.048Z,3.80
2023-01-03T03:54:40.813Z,4.15
2023-01-03T03:57:57.233Z,3.67
2023-01-03T04:01:00.277Z,3.67
2023-01-03T04:04:07.370Z,3.80
2023-01-03T04:07:09.035Z,3.60
2023-01-03T04:10:11.802Z,3.88
2023-01-03T04:13:13.193Z,4.10
2023-01-03T04:16:14.663Z,3.92
2023-01-03T04:19:16.066Z,4.00
2023-01-03T04:22:17.446Z,4.20
2023-01-03T04:25:18.774Z,3.88
2023-01-03T04:28:20.351Z,5.22
2023-01-03T04:31:21.825Z,4.38
2023-01-03T04:34:23.258Z,4.63
2023-01-03T04:37:24.638Z,4.18
2023-01-03T04:40:26.290Z,5.18
2023-01-03T04:43:27.629Z,5.22
2023-01-03T04:46:31.625Z,4.28
2023-01-03T04:49:33.125Z,4.68
2023-01-03T04:52:34.471Z,4.47
2023-01-03T04:55:35.814Z,3.97
2023-01-03T04:58:37.691Z,3.95
2023-01-03T05:01:39.212Z,4.60
2023-01-03T05:04:40.777Z,4.05
2023-01-03T05:07:42.186Z,4.47
2023-01-03T05:10:43.536Z,4.40
2023-01-03T05:13:44.883Z,4.85
2023-01-03T05:16:46.565Z,5.80
2023-01-03T05:19:48.524Z,5.75
2023-01-03T05:22:50.333Z,5.32
2023-01-03T05:25:51.842Z,5.00
2023-01-03T05:28:54.539Z,5.43
2023-01-03T05:31:56.498Z,5.38
2023-01-03T05:34:57.919Z,5.72
2023-01-03T05:37:59.269Z,5.35
2023-01-03T05:41:00.702Z,5.05
2023-01-03T05:44:02.080Z,6.00
2023-01-03T05:47:04.651Z,6.03
2023-01-03T05:50:06.598Z,5.37
2023-01-03T05:53:07.961Z,5.63
2023-01-03T05:56:09.305Z,5.28
2023-01-03T05:59:11.389Z,5.55
2023-01-03T06:02:12.986Z,5.65
2023-01-03T06:05:14.438Z,5.28
2023-01-03T06:08:15.776Z,5.97
2023-01-03T06:11:17.747Z,5.72
2023-01-03T06:14:19.231Z,5.80
2023-01-03T06:17:21.053Z,4.95
2023-01-03T06:20:22.457Z,4.85
2023-01-03T06:23:23.871Z,6.00
2023-01-03T06:26:25.946Z,5.88
2023-01-03T06:29:27.339Z,6.28
2023-01-03T06:32:30.027Z,7.88
2023-01-03T06:35:31.388Z,10.30
2023-01-03T06:38:33.079Z,9.38
2023-01-03T06:41:34.445Z,8.88
2023-01-03T06:44:35.804Z,8.02
2023-01-03T06:47:37.728Z,7.07
2023-01-03T06:50:41.581Z,8.68
2023-01-03T06:53:43.464Z,7.80
2023-01-03T06:56:44.833Z,7.70
2023-01-03T06:59:46.189Z,6.88
2023-01-03T07:02:47.684Z,5.80
2023-01-03T07:05:49.287Z,4.57
2023-01-03T07:08:50.661Z,4.78
2023-01-03T07:11:52.002Z,4.63
2023-01-03T07:14:53.870Z,12.85
2023-01-03T07:17:55.830Z,5.90
2023-01-03T07:20:57.194Z,5.65
2023-01-03T07:24:00.661Z,5.70
2023-01-03T07:27:02.040Z,6.28
2023-01-03T07:30:03.685Z,5.70
2023-01-03T07:33:05.276Z,5.18
2023-01-03T07:36:11.846Z,5.63
2023-01-03T07:39:13.630Z,5.07
2023-01-03T07:42:14.978Z,5.78
2023-01-03T07:45:16.566Z,6.68
2023-01-03T07:48:17.963Z,8.13
2023-01-03T07:51:21.439Z,7.53
2023-01-03T07:54:22.844Z,18.20
2023-01-03T07:57:24.212Z,16.90
2023-01-03T08:00:25.944Z,11.60
2023-01-03T08:03:27.318Z,11.48
2023-01-03T08:06:28.670Z,10.93
2023-01-03T08:09:30.052Z,10.05
2023-01-03T08:12:31.408Z,9.55
2023-01-03T08:15:32.809Z,9.48
2023-01-03T08:18:34.193Z,8.57
2023-01-03T08:21:35.616Z,8.75
2023-01-03T08:24:36.968Z,9.23
2023-01-03T08:27:38.370Z,7.85
2023-01-03T08:30:45.514Z,8.52
2023-01-03T08:33:52.199Z,7.78
2023-01-03T08:37:00.495Z,8.93
2023-01-03T08:40:04.927Z,9.00
2023-01-03T08:43:06.523Z,8.38
2023-01-03T08:46:10.255Z,8.35
2023-01-03T08:49:12.452Z,9.40
2023-01-03T08:52:13.812Z,8.55
2023-01-03T08:55:15.182Z,8.90
2023-01-03T08:58:16.570Z,9.00
2023-01-03T09:01:17.989Z,9.27
2023-01-03T09:04:19.582Z,9.35
2023-01-03T09:07:20.975Z,9.48
2023-01-03T09:10:22.969Z,8.38
2023-01-03T09:13:24.546Z,9.38
2023-01-03T09:16:25.993Z,8.45
2023-01-03T09:19:27.363Z,9.18
2023-01-03T09:22:28.853Z,8.50
2023-01-03T09:25:36.602Z,8.48
2023-01-03T09:28:38.558Z,8.48
2023-01-03T09:31:40.384Z,8.70
2023-01-03T09:34:41.802Z,8.68
2023-01-03T09:37:48.631Z,10.73
2023-01-03T09:41:08.162Z,8.55
2023-01-03T09:44:10.848Z,7.22
2023-01-03T09:47:19.752Z,7.00
2023-01-03T09:50:39.253Z,8.02
2023-01-03T09:53:45.414Z,7.35
2023-01-03T09:56:46.983Z,8.02
2023-01-03T09:59:48.439Z,7.90
2023-01-03T10:03:00.788Z,7.93
2023-01-03T10:06:11.548Z,7.90
2023-01-03T10:09:27.159Z,7.90
2023-01-03T10:12:56.639Z,7.95
2023-01-03T10:16:10.259Z,8.68
2023-01-03T10:22:30.373Z,9.27
2023-01-03T10:25:31.839Z,7.80
2023-01-03T10:28:38.379Z,7.90
2023-01-03T10:31:57.700Z,10.20
2023-01-03T10:35:32.748Z,10.18
2023-01-03T10:38:43.540Z,9.93
2023-01-03T10:41:49.287Z,9.90
2023-01-03T10:45:01.414Z,10.15
2023-01-03T10:48:02.867Z,10.13
2023-01-03T10:51:24.051Z,8.85
2023-01-03T10:54:25.327Z,8.82
2023-01-03T10:57:43.366Z,9.50
2023-01-03T11:00:44.884Z,8.95
2023-01-03T11:04:12.701Z,9.13
2023-01-03T11:07:15.208Z,8.45
2023-01-03T11:10:18.546Z,8.30
2023-01-03T11:16:31.908Z,8.13
2023-01-03T11:19:34.260Z,7.22
2023-01-03T11:23:14.507Z,7.13
2023-01-03T11:26:39.067Z,7.40
2023-01-03T11:30:09.676Z,6.55
2023-01-03T11:33:13.764Z,6.15
2023-01-03T11:36:37.580Z,5.78
2023-01-03T11:43:04.307Z,5.03
2023-01-03T11:46:25.002Z,5.00
2023-01-03T11:49:48.192Z,5.03
2023-01-03T11:53:01.779Z,5.70
2023-01-03T11:59:45.892Z,5.18
2023-01-03T12:03:00.096Z,4.78
2023-01-03T12:06:37.048Z,4.93
2023-01-03T12:09:53.772Z,5.25
2023-01-03T12:13:04.167Z,5.40
2023-01-03T12:16:29.456Z,4.57
2023-01-03T12:19:56.939Z,5.20
2023-01-03T12:23:06.276Z,4.95
2023-01-03T12:26:12.144Z,5.55
2023-01-03T12:29:31.670Z,4.68
2023-01-03T12:32:47.305Z,5.60
2023-01-03T12:36:00.175Z,5.45
2023-01-03T12:39:13.049Z,6.07
2023-01-03T12:42:24.633Z,8.52
2023-01-03T12:45:42.609Z,7.40
2023-01-03T12:48:43.911Z,6.18
2023-01-03T12:51:45.306Z,6.38
2023-01-03T12:54:58.958Z,7.18
2023-01-03T13:01:44.072Z,5.30
2023-01-03T13:04:51.076Z,6.18
2023-01-03T13:08:34.506Z,5.82
2023-01-03T13:11:49.903Z,6.83
2023-01-03T13:14:55.735Z,6.97
2023-01-03T13:18:19.459Z,6.78
2023-01-03T13:21:54.940Z,6.32
2023-01-03T13:25:28.074Z,6.50
2023-01-03T13:28:31.147Z,7.57
2023-01-03T13:31:38.182Z,7.13
2023-01-03T13:34:39.600Z,6.43
2023-01-03T13:37:45.204Z,7.40
2023-01-03T13:41:16.616Z,6.90
2023-01-03T13:44:22.319Z,6.78
2023-01-03T13:47:51.330Z,8.35
2023-01-03T13:51:03.924Z,6.90
2023-01-03T13:54:25.967Z,7.22
2023-01-03T13:57:35.914Z,6.40
2023-01-03T14:00:40.284Z,7.25
2023-01-03T14:04:06.948Z,7.85
2023-01-03T14:07:20.248Z,9.27
2023-01-03T14:10:58.993Z,6.75
2023-01-03T14:14:12.137Z,6.85
2023-01-03T14:17:19.419Z,6.90
2023-01-03T14:20:26.591Z,7.75
2023-01-03T14:23:58.554Z,7.05
2023-01-03T14:26:50.401Z,7.45
2023-01-03T14:29:54.500Z,7.05
2023-01-03T14:32:56.147Z,8.00
2023-01-03T14:36:17.647Z,7.65
2023-01-03T14:39:23.041Z,7.43
2023-01-03T14:42:25.136Z,7.20
2023-01-03T14:45:26.595Z,7.70
2023-01-03T14:48:28.107Z,7.07
2023-01-03T14:51:31.733Z,7.45
2023-01-03T14:54:34.291Z,8.80
2023-01-03T14:57:38.189Z,10.07
2023-01-03T15:00:40.534Z,12.15
2023-01-03T15:03:47.365Z,11.00
2023-01-03T15:07:04.879Z,11.23
2023-01-03T15:10:10.783Z,10.65
2023-01-03T15:13:40.107Z,10.73
2023-01-03T15:16:42.620Z,11.55
2023-01-03T15:19:54.236Z,11.47
2023-01-03T15:22:55.835Z,11.70
2023-01-03T15:25:59.253Z,12.68
2023-01-03T15:32:11.224Z,12.98
2023-01-03T15:35:43.777Z,13.23
2023-01-03T15:38:47.206Z,14.80
2023-01-03T15:44:51.941Z,14.80
2023-01-03T15:47:57.461Z,15.90
2023-01-03T15:50:58.852Z,14.05
2023-01-03T15:54:00.551Z,15.52
2023-01-03T15:57:04.699Z,15.40
2023-01-03T16:00:07.549Z,16.05
2023-01-03T16:03:15.966Z,16.00
2023-01-03T16:06:18.030Z,16.17
2023-01-03T16:09:20.515Z,16.98
2023-01-03T16:12:30.223Z,18.80
2023-01-03T16:15:31.728Z,20.10
2023-01-03T16:18:43.143Z,18.80
2023-01-03T16:21:56.603Z,20.20
2023-01-03T16:25:06.437Z,19.40
2023-01-03T16:28:12.207Z,19.33
2023-01-03T16:31:38.915Z,20.00
2023-01-03T16:34:40.268Z,19.42
2023-01-03T16:37:41.861Z,20.85
2023-01-03T16:40:44.929Z,19.88
2023-01-03T16:43:46.393Z,21.02
2023-01-03T16:46:47.840Z,19.95
2023-01-03T16:49:58.656Z,20.00
2023-01-03T16:53:00.108Z,21.42
2023-01-03T16:56:02.910Z,21.55
2023-01-03T16:59:08.713Z,20.50
2023-01-03T17:02:10.242Z,21.85
2023-01-03T17:05:12.908Z,21.20
2023-01-03T17:08:31.529Z,20.77
2023-01-03T17:11:33.851Z,23.52
2023-01-03T17:14:37.007Z,22.83
2023-01-03T17:17:38.375Z,23.08
2023-01-03T17:20:39.751Z,23.65
2023-01-03T17:23:43.848Z,22.15
2023-01-03T17:26:45.437Z,22.83
2023-01-03T17:29:49.387Z,22.98
2023-01-03T17:32:50.742Z,23.63
2023-01-03T17:35:52.666Z,24.25
2023-01-03T17:38:54.797Z,24.40
2023-01-03T17:41:56.210Z,24.92
2023-01-03T17:44:57.580Z,24.45
2023-01-03T17:47:58.928Z,24.38
2023-01-03T17:51:00.933Z,24.10
2023-01-03T17:54:02.481Z,22.77
2023-01-03T17:57:05.492Z,24.30
2023-01-03T18:00:15.941Z,24.80
2023-01-03T18:03:17.366Z,23.13
2023-01-03T18:06:22.375Z,24.55
2023-01-03T18:09:26.405Z,23.05
2023-01-03T18:12:27.915Z,23.17
2023-01-03T18:15:29.586Z,24.40
2023-01-03T18:18:31.774Z,22.83
2023-01-03T18:21:34.186Z,23.60
2023-01-03T18:24:35.561Z,24.77
2023-01-03T18:27:37.023Z,24.83
2023-01-03T18:30:38.423Z,23.63
2023-01-03T18:33:39.839Z,23.35
2023-01-03T18:36:51.158Z,25.08
2023-01-03T18:39:52.658Z,24.80
2023-01-03T18:43:01.553Z,24.70
2023-01-03T18:46:03.026Z,24.30
2023-01-03T18:49:04.451Z,22.50
2023-01-03T18:52:06.400Z,24.63
2023-01-03T18:55:15.141Z,25.25
2023-01-03T18:58:25.587Z,22.50
2023-01-03T19:01:27.479Z,24.20
2023-01-03T19:04:28.892Z,25.25
2023-01-03T19:07:34.757Z,25.27
2023-01-03T19:10:36.154Z,24.45
2023-01-03T19:13:39.571Z,25.33
2023-01-03T19:19:42.897Z,22.60
2023-01-03T19:22:46.548Z,24.10
2023-01-03T19:25:48.084Z,22.73
2023-01-03T19:28:49.512Z,22.58
2023-01-03T19:31:55.137Z,22.80
2023-01-03T19:34:56.911Z,22.73
2023-01-03T19:37:58.300Z,21.90
2023-01-03T19:40:59.914Z,22.90
2023-01-03T19:44:01.856Z,22.88
2023-01-03T19:47:04.337Z,21.98
2023-01-03T19:50:23.486Z,23.00
2023-01-03T19:53:24.868Z,20.58
2023-01-03T19:56:26.301Z,21.70
2023-01-03T19:59:34.859Z,20.95
2023-01-03T20:02:39.615Z,21.73
2023-01-03T20:05:41.399Z,22.35
2023-01-03T20:08:42.945Z,22.25
2023-01-03T20:11:49.006Z,20.52
2023-01-03T20:14:53.089Z,21.65
2023-01-03T20:17:54.935Z,20.85
2023-01-03T20:20:59.787Z,21.25
2023-01-03T20:24:02.560Z,20.15
2023-01-03T20:27:04.054Z,19.95
2023-01-03T20:30:17.113Z,18.27
2023-01-03T20:33:18.488Z,19.58
2023-01-03T20:36:24.184Z,18.42
2023-01-03T20:39:28.566Z,17.20
2023-01-03T20:42:29.917Z,17.77
2023-01-03T20:45:32.108Z,16.30
2023-01-03T20:48:33.468Z,16.05
2023-01-03T20:51:34.817Z,16.20
2023-01-03T20:54:36.196Z,16.75
2023-01-03T20:57:37.617Z,15.10
2023-01-03T21:00:39.154Z,16.08
2023-01-03T21:03:40.617Z,15.75
2023-01-03T21:06:44.494Z,14.52
2023-01-03T21:09:45.873Z,14.95
2023-01-03T21:12:47.243Z,14.65
2023-01-03T21:15:49.954Z,15.30
2023-01-03T21:18:51.486Z,14.30
2023-01-03T21:21:54.647Z,13.30
2023-01-03T21:24:57.879Z,13.00
2023-01-03T21:31:05.358Z,12.05
2023-01-03T21:34:17.266Z,13.25
2023-01-03T21:37:18.613Z,12.95
2023-01-03T21:40:28.854Z,12.23
2023-01-03T21:43:30.240Z,13.23
2023-01-03T21:46:31.639Z,11.65
2023-01-03T21:49:33.087Z,11.65
2023-01-03T21:52:34.599Z,11.27
2023-01-03T21:55:39.179Z,11.10
2023-01-03T21:58:40.536Z,10.50
2023-01-03T22:01:43.903Z,10.85
2023-01-03T22:04:45.703Z,10.18
2023-01-03T22:07:47.096Z,9.98
2023-01-03T22:10:48.653Z,10.48
2023-01-03T22:13:50.236Z,9.30
2023-01-03T22:16:51.649Z,9.25
2023-01-03T22:19:53.008Z,8.43
2023-01-03T22:22:54.627Z,8.32
2023-01-03T22:26:01.610Z,7.78
2023-01-03T22:29:05.052Z,6.85
2023-01-03T22:32:06.583Z,6.93
2023-01-03T22:35:09.466Z,5.75
2023-01-03T22:38:10.829Z,6.88
2023-01-03T22:41:15.753Z,6.68
2023-01-03T22:44:17.174Z,6.18
2023-01-03T22:47:18.566Z,6.05
2023-01-03T22:50:20.080Z,6.85
2023-01-03T22:53:21.498Z,5.95
2023-01-03T22:56:22.866Z,5.85
2023-01-03T22:59:24.222Z,5.00
2023-01-03T23:02:29.106Z,5.50
2023-01-03T23:05:30.858Z,5.68
2023-01-03T23:08:33.359Z,5.93
2023-01-03T23:11:35.061Z,5.00
2023-01-03T23:14:36.508Z,4.93
2023-01-03T23:17:37.898Z,5.32
2023-01-03T23:20:39.259Z,4.70
2023-01-03T23:23:40.602Z,4.93
2023-01-03T23:26:42.678Z,4.15
2023-01-03T23:29:44.332Z,4.53
2023-01-03T23:32:45.744Z,3.88
2023-01-03T23:35:47.189Z,4.20
2023-01-03T23:38:48.796Z,3.85
2023-01-03T23:41:50.139Z,3.50
2023-01-03T23:44:51.474Z,3.67
2023-01-03T23:47:52.855Z,3.15
2023-01-03T23:51:00.663Z,3.10
2023-01-03T23:54:02.068Z,3.13
2023-01-03T23:57:03.524Z,2.85
